sensor_id;sensor_type;location;lat;lon;timestamp;P1;durP1;ratioP1;P2;durP2;ratioP2
21769;SDS011;11046;49.558;8.674;2022-08-01T00:01:59;3.28;;;2.70;;
21769;SDS011;11046;49.558;8.674;2022-08-01T00:05:00;3.80;;;2.38;;
21769;SDS011;11046;49.558;8.674;2022-08-01T00:08:01;4.07;;;2.60;;
21769;SDS011;11046;49.558;8.674;2022-08-01T00:11:02;2.60;;;2.40;;
21769;SDS011;11046;49.558;8.674;2022-08-01T00:14:03;4.20;;;2.40;;
21769;SDS011;11046;49.558;8.674;2022-08-01T00:17:04;3.97;;;2.55;;
21769;SDS011;11046;49.558;8.674;2022-08-01T00:20:05;3.88;;;2.58;;
21769;SDS011;11046;49.558;8.674;2022-08-01T00:23:08;3.53;;;2.60;;
21769;SDS011;11046;49.558;8.674;2022-08-01T00:26:08;3.00;;;2.50;;
21769;SDS011;11046;49.558;8.674;2022-08-01T00:29:09;4.43;;;2.42;;
21769;SDS011;11046;49.558;8.674;2022-08-01T00:32:10;6.10;;;2.60;;
21769;SDS011;11046;49.558;8.674;2022-08-01T00:35:10;8.75;;;3.85;;
21769;SDS011;11046;49.558;8.674;2022-08-01T00:38:11;3.05;;;2.75;;
21769;SDS011;11046;49.558;8.674;2022-08-01T00:41:12;4.55;;;2.83;;
21769;SDS011;11046;49.558;8.674;2022-08-01T00:44:13;3.72;;;2.72;;
21769;SDS011;11046;49.558;8.674;2022-08-01T00:47:13;5.90;;;2.95;;
21769;SDS011;11046;49.558;8.674;2022-08-01T00:50:14;2.88;;;2.58;;
21769;SDS011;11046;49.558;8.674;2022-08-01T00:53:15;5.07;;;2.58;;
21769;SDS011;11046;49.558;8.674;2022-08-01T00:56:16;4.38;;;3.03;;
21769;SDS011;11046;49.558;8.674;2022-08-01T00:59:17;3.35;;;2.55;;
21769;SDS011;11046;49.558;8.674;2022-08-01T01:02:18;4.80;;;2.67;;
21769;SDS011;11046;49.558;8.674;2022-08-01T01:05:19;5.07;;;2.75;;
21769;SDS011;11046;49.558;8.674;2022-08-01T01:08:24;3.22;;;2.50;;
21769;SDS011;11046;49.558;8.674;2022-08-01T01:11:39;4.35;;;2.78;;
21769;SDS011;11046;49.558;8.674;2022-08-01T01:15:04;6.15;;;3.03;;
21769;SDS011;11046;49.558;8.674;2022-08-01T01:18:17;4.85;;;2.60;;
21769;SDS011;11046;49.558;8.674;2022-08-01T01:24:42;4.15;;;2.78;;
21769;SDS011;11046;49.558;8.674;2022-08-01T01:31:20;5.05;;;2.47;;
21769;SDS011;11046;49.558;8.674;2022-08-01T01:34:24;5.30;;;2.65;;
21769;SDS011;11046;49.558;8.674;2022-08-01T01:37:27;4.32;;;2.80;;
21769;SDS011;11046;49.558;8.674;2022-08-01T01:40:31;3.53;;;2.72;;
21769;SDS011;11046;49.558;8.674;2022-08-01T01:43:34;5.85;;;3.03;;
21769;SDS011;11046;49.558;8.674;2022-08-01T01:46:36;3.13;;;2.80;;
21769;SDS011;11046;49.558;8.674;2022-08-01T01:49:38;6.40;;;2.92;;
21769;SDS011;11046;49.558;8.674;2022-08-01T01:52:40;10.45;;;2.92;;
21769;SDS011;11046;49.558;8.674;2022-08-01T01:55:45;6.38;;;2.95;;
21769;SDS011;11046;49.558;8.674;2022-08-01T01:58:59;5.57;;;2.63;;
21769;SDS011;11046;49.558;8.674;2022-08-01T02:02:02;5.32;;;2.70;;
21769;SDS011;11046;49.558;8.674;2022-08-01T02:05:05;3.25;;;2.60;;
21769;SDS011;11046;49.558;8.674;2022-08-01T02:08:08;7.95;;;2.78;;
21769;SDS011;11046;49.558;8.674;2022-08-01T02:11:11;3.40;;;2.78;;
21769;SDS011;11046;49.558;8.674;2022-08-01T02:14:21;3.55;;;2.72;;
21769;SDS011;11046;49.558;8.674;2022-08-01T02:17:23;3.75;;;2.70;;
21769;SDS011;11046;49.558;8.674;2022-08-01T02:20:26;6.32;;;2.92;;
21769;SDS011;11046;49.558;8.674;2022-08-01T02:23:31;4.50;;;2.85;;
21769;SDS011;11046;49.558;8.674;2022-08-01T02:26:34;4.40;;;2.13;;
21769;SDS011;11046;49.558;8.674;2022-08-01T02:29:50;2.88;;;2.08;;
21769;SDS011;11046;49.558;8.674;2022-08-01T02:36:41;6.82;;;2.40;;
21769;SDS011;11046;49.558;8.674;2022-08-01T02:39:46;5.28;;;2.55;;
21769;SDS011;11046;49.558;8.674;2022-08-01T02:42:49;6.05;;;2.65;;
21769;SDS011;11046;49.558;8.674;2022-08-01T02:45:53;5.35;;;2.63;;
21769;SDS011;11046;49.558;8.674;2022-08-01T02:48:55;4.20;;;2.85;;
21769;SDS011;11046;49.558;8.674;2022-08-01T02:52:00;5.15;;;2.80;;
21769;SDS011;11046;49.558;8.674;2022-08-01T02:55:05;4.43;;;2.90;;
21769;SDS011;11046;49.558;8.674;2022-08-01T02:58:08;2.78;;;2.55;;
21769;SDS011;11046;49.558;8.674;2022-08-01T03:01:11;4.95;;;2.75;;
21769;SDS011;11046;49.558;8.674;2022-08-01T03:04:15;2.85;;;2.65;;
21769;SDS011;11046;49.558;8.674;2022-08-01T03:07:17;4.63;;;2.63;;
21769;SDS011;11046;49.558;8.674;2022-08-01T03:10:20;3.70;;;2.58;;
21769;SDS011;11046;49.558;8.674;2022-08-01T03:13:22;3.40;;;2.53;;
21769;SDS011;11046;49.558;8.674;2022-08-01T03:16:25;3.85;;;2.67;;
21769;SDS011;11046;49.558;8.674;2022-08-01T03:19:27;3.95;;;2.53;;
21769;SDS011;11046;49.558;8.674;2022-08-01T03:22:30;5.10;;;2.83;;
21769;SDS011;11046;49.558;8.674;2022-08-01T03:25:34;5.22;;;2.53;;
21769;SDS011;11046;49.558;8.674;2022-08-01T03:28:38;5.82;;;2.38;;
21769;SDS011;11046;49.558;8.674;2022-08-01T03:31:40;6.90;;;2.58;;
21769;SDS011;11046;49.558;8.674;2022-08-01T03:34:45;3.33;;;2.30;;
21769;SDS011;11046;49.558;8.674;2022-08-01T03:37:47;3.22;;;1.98;;
21769;SDS011;11046;49.558;8.674;2022-08-01T03:40:55;4.20;;;2.60;;
21769;SDS011;11046;49.558;8.674;2022-08-01T03:44:03;3.53;;;2.60;;
21769;SDS011;11046;49.558;8.674;2022-08-01T03:47:08;4.55;;;2.33;;
21769;SDS011;11046;49.558;8.674;2022-08-01T03:50:11;6.63;;;2.70;;
21769;SDS011;11046;49.558;8.674;2022-08-01T03:53:14;4.50;;;2.60;;
21769;SDS011;11046;49.558;8.674;2022-08-01T03:56:16;3.10;;;2.38;;
21769;SDS011;11046;49.558;8.674;2022-08-01T03:59:19;5.00;;;2.50;;
21769;SDS011;11046;49.558;8.674;2022-08-01T04:02:21;4.50;;;2.30;;
21769;SDS011;11046;49.558;8.674;2022-08-01T04:05:23;5.10;;;2.17;;
21769;SDS011;11046;49.558;8.674;2022-08-01T04:08:33;6.28;;;2.28;;
21769;SDS011;11046;49.558;8.674;2022-08-01T04:11:36;2.28;;;1.95;;
21769;SDS011;11046;49.558;8.674;2022-08-01T04:14:36;3.83;;;2.30;;
21769;SDS011;11046;49.558;8.674;2022-08-01T04:17:37;5.47;;;2.30;;
21769;SDS011;11046;49.558;8.674;2022-08-01T04:20:38;3.53;;;2.22;;
21769;SDS011;11046;49.558;8.674;2022-08-01T04:23:39;5.47;;;2.35;;
21769;SDS011;11046;49.558;8.674;2022-08-01T04:26:43;5.88;;;2.70;;
21769;SDS011;11046;49.558;8.674;2022-08-01T04:29:46;4.63;;;3.00;;
21769;SDS011;11046;49.558;8.674;2022-08-01T04:32:50;5.47;;;2.58;;
21769;SDS011;11046;49.558;8.674;2022-08-01T04:35:52;3.50;;;2.67;;
21769;SDS011;11046;49.558;8.674;2022-08-01T04:38:54;7.68;;;2.97;;
21769;SDS011;11046;49.558;8.674;2022-08-01T04:41:59;3.17;;;2.30;;
21769;SDS011;11046;49.558;8.674;2022-08-01T04:45:03;2.42;;;2.10;;
21769;SDS011;11046;49.558;8.674;2022-08-01T04:48:05;2.92;;;2.30;;
21769;SDS011;11046;49.558;8.674;2022-08-01T04:51:16;5.93;;;2.60;;
21769;SDS011;11046;49.558;8.674;2022-08-01T04:54:17;5.55;;;2.20;;
21769;SDS011;11046;49.558;8.674;2022-08-01T04:57:18;8.35;;;1.98;;
21769;SDS011;11046;49.558;8.674;2022-08-01T05:00:19;7.63;;;2.50;;
21769;SDS011;11046;49.558;8.674;2022-08-01T05:03:19;7.38;;;2.42;;
21769;SDS011;11046;49.558;8.674;2022-08-01T05:06:20;3.78;;;2.40;;
21769;SDS011;11046;49.558;8.674;2022-08-01T05:09:21;4.22;;;2.10;;
21769;SDS011;11046;49.558;8.674;2022-08-01T05:12:23;2.30;;;1.88;;
21769;SDS011;11046;49.558;8.674;2022-08-01T05:15:24;5.07;;;2.33;;
21769;SDS011;11046;49.558;8.674;2022-08-01T05:18:25;4.07;;;2.00;;
21769;SDS011;11046;49.558;8.674;2022-08-01T05:21:26;4.75;;;2.00;;
21769;SDS011;11046;49.558;8.674;2022-08-01T05:24:27;4.47;;;2.05;;
21769;SDS011;11046;49.558;8.674;2022-08-01T05:27:28;3.60;;;2.10;;
21769;SDS011;11046;49.558;8.674;2022-08-01T05:30:29;3.45;;;1.80;;
21769;SDS011;11046;49.558;8.674;2022-08-01T05:33:29;2.45;;;1.67;;
21769;SDS011;11046;49.558;8.674;2022-08-01T05:36:30;2.78;;;1.90;;
21769;SDS011;11046;49.558;8.674;2022-08-01T05:39:31;2.33;;;1.88;;
21769;SDS011;11046;49.558;8.674;2022-08-01T05:42:31;9.23;;;2.00;;
21769;SDS011;11046;49.558;8.674;2022-08-01T05:45:32;5.65;;;1.98;;
21769;SDS011;11046;49.558;8.674;2022-08-01T05:48:33;3.53;;;1.65;;
21769;SDS011;11046;49.558;8.674;2022-08-01T05:51:33;2.65;;;1.60;;
21769;SDS011;11046;49.558;8.674;2022-08-01T05:54:34;4.45;;;1.80;;
21769;SDS011;11046;49.558;8.674;2022-08-01T05:57:35;2.38;;;1.88;;
21769;SDS011;11046;49.558;8.674;2022-08-01T06:00:35;8.88;;;1.58;;
21769;SDS011;11046;49.558;8.674;2022-08-01T06:03:36;4.43;;;1.55;;
21769;SDS011;11046;49.558;8.674;2022-08-01T06:06:37;3.22;;;1.30;;
21769;SDS011;11046;49.558;8.674;2022-08-01T06:09:37;1.90;;;1.50;;
21769;SDS011;11046;49.558;8.674;2022-08-01T06:12:38;2.08;;;1.63;;
21769;SDS011;11046;49.558;8.674;2022-08-01T06:15:39;6.95;;;2.13;;
21769;SDS011;11046;49.558;8.674;2022-08-01T06:18:39;3.55;;;2.42;;
21769;SDS011;11046;49.558;8.674;2022-08-01T06:21:40;2.63;;;1.50;;
21769;SDS011;11046;49.558;8.674;2022-08-01T06:24:41;5.05;;;1.73;;
21769;SDS011;11046;49.558;8.674;2022-08-01T06:27:41;6.75;;;1.77;;
21769;SDS011;11046;49.558;8.674;2022-08-01T06:30:42;4.47;;;1.75;;
21769;SDS011;11046;49.558;8.674;2022-08-01T06:33:43;4.55;;;1.63;;
21769;SDS011;11046;49.558;8.674;2022-08-01T06:36:44;3.10;;;1.90;;
21769;SDS011;11046;49.558;8.674;2022-08-01T06:39:44;3.40;;;1.48;;
21769;SDS011;11046;49.558;8.674;2022-08-01T06:42:45;4.13;;;1.63;;
21769;SDS011;11046;49.558;8.674;2022-08-01T06:45:46;3.60;;;1.60;;
21769;SDS011;11046;49.558;8.674;2022-08-01T06:48:47;3.47;;;1.70;;
21769;SDS011;11046;49.558;8.674;2022-08-01T06:51:48;5.03;;;1.85;;
21769;SDS011;11046;49.558;8.674;2022-08-01T06:54:49;5.00;;;1.67;;
21769;SDS011;11046;49.558;8.674;2022-08-01T06:57:50;7.45;;;1.88;;
21769;SDS011;11046;49.558;8.674;2022-08-01T07:00:52;5.57;;;1.55;;
21769;SDS011;11046;49.558;8.674;2022-08-01T07:03:53;5.13;;;1.60;;
21769;SDS011;11046;49.558;8.674;2022-08-01T07:06:54;2.38;;;1.80;;
21769;SDS011;11046;49.558;8.674;2022-08-01T07:09:55;6.95;;;1.90;;
21769;SDS011;11046;49.558;8.674;2022-08-01T07:12:55;6.28;;;1.73;;
21769;SDS011;11046;49.558;8.674;2022-08-01T07:15:56;2.55;;;1.67;;
21769;SDS011;11046;49.558;8.674;2022-08-01T07:18:57;10.98;;;1.63;;
21769;SDS011;11046;49.558;8.674;2022-08-01T07:21:57;4.32;;;1.52;;
21769;SDS011;11046;49.558;8.674;2022-08-01T07:24:58;10.52;;;1.88;;
21769;SDS011;11046;49.558;8.674;2022-08-01T07:27:59;3.10;;;1.70;;
21769;SDS011;11046;49.558;8.674;2022-08-01T07:30:59;11.23;;;1.55;;
21769;SDS011;11046;49.558;8.674;2022-08-01T07:34:00;1.65;;;1.55;;
21769;SDS011;11046;49.558;8.674;2022-08-01T07:37:01;2.10;;;1.30;;
21769;SDS011;11046;49.558;8.674;2022-08-01T07:40:02;5.90;;;1.35;;
21769;SDS011;11046;49.558;8.674;2022-08-01T07:43:04;2.13;;;1.30;;
21769;SDS011;11046;49.558;8.674;2022-08-01T07:46:05;5.38;;;1.40;;
21769;SDS011;11046;49.558;8.674;2022-08-01T07:49:06;3.50;;;1.90;;
21769;SDS011;11046;49.558;8.674;2022-08-01T07:52:07;1.90;;;1.30;;
21769;SDS011;11046;49.558;8.674;2022-08-01T07:55:09;3.05;;;1.30;;
21769;SDS011;11046;49.558;8.674;2022-08-01T07:58:11;2.25;;;1.30;;
21769;SDS011;11046;49.558;8.674;2022-08-01T08:01:11;1.65;;;1.13;;
21769;SDS011;11046;49.558;8.674;2022-08-01T08:04:12;6.45;;;1.17;;
21769;SDS011;11046;49.558;8.674;2022-08-01T08:07:13;1.80;;;1.17;;
21769;SDS011;11046;49.558;8.674;2022-08-01T08:10:13;6.95;;;1.67;;
21769;SDS011;11046;49.558;8.674;2022-08-01T08:13:14;2.33;;;1.17;;
21769;SDS011;11046;49.558;8.674;2022-08-01T08:16:15;5.30;;;1.40;;
21769;SDS011;11046;49.558;8.674;2022-08-01T08:19:15;1.65;;;0.95;;
21769;SDS011;11046;49.558;8.674;2022-08-01T08:22:16;3.33;;;1.00;;
21769;SDS011;11046;49.558;8.674;2022-08-01T08:25:17;2.30;;;1.00;;
21769;SDS011;11046;49.558;8.674;2022-08-01T08:28:19;2.63;;;0.93;;
21769;SDS011;11046;49.558;8.674;2022-08-01T08:31:19;2.47;;;1.10;;
21769;SDS011;11046;49.558;8.674;2022-08-01T08:34:20;1.88;;;1.02;;
21769;SDS011;11046;49.558;8.674;2022-08-01T08:37:21;5.43;;;1.30;;
21769;SDS011;11046;49.558;8.674;2022-08-01T08:40:22;3.20;;;1.08;;
21769;SDS011;11046;49.558;8.674;2022-08-01T08:43:29;1.77;;;1.17;;
21769;SDS011;11046;49.558;8.674;2022-08-01T08:46:29;5.22;;;1.20;;
21769;SDS011;11046;49.558;8.674;2022-08-01T08:49:33;1.75;;;1.00;;
21769;SDS011;11046;49.558;8.674;2022-08-01T08:52:35;2.78;;;0.98;;
21769;SDS011;11046;49.558;8.674;2022-08-01T08:55:39;3.47;;;1.10;;
21769;SDS011;11046;49.558;8.674;2022-08-01T08:58:43;1.60;;;1.13;;
21769;SDS011;11046;49.558;8.674;2022-08-01T09:01:45;3.47;;;1.52;;
21769;SDS011;11046;49.558;8.674;2022-08-01T09:04:50;1.20;;;0.98;;
21769;SDS011;11046;49.558;8.674;2022-08-01T09:07:52;1.40;;;0.93;;
21769;SDS011;11046;49.558;8.674;2022-08-01T09:10:53;1.38;;;1.02;;
21769;SDS011;11046;49.558;8.674;2022-08-01T09:17:23;3.60;;;1.10;;
21769;SDS011;11046;49.558;8.674;2022-08-01T09:20:24;2.42;;;1.00;;
21769;SDS011;11046;49.558;8.674;2022-08-01T09:23:32;1.45;;;0.98;;
21769;SDS011;11046;49.558;8.674;2022-08-01T09:26:39;3.63;;;1.23;;
21769;SDS011;11046;49.558;8.674;2022-08-01T09:29:42;3.00;;;1.02;;
21769;SDS011;11046;49.558;8.674;2022-08-01T09:36:02;1.20;;;1.10;;
21769;SDS011;11046;49.558;8.674;2022-08-01T09:39:11;4.25;;;1.00;;
21769;SDS011;11046;49.558;8.674;2022-08-01T09:42:20;1.67;;;0.95;;
21769;SDS011;11046;49.558;8.674;2022-08-01T09:45:32;2.60;;;0.85;;
21769;SDS011;11046;49.558;8.674;2022-08-01T09:48:33;2.88;;;0.90;;
21769;SDS011;11046;49.558;8.674;2022-08-01T09:51:36;1.55;;;1.10;;
21769;SDS011;11046;49.558;8.674;2022-08-01T09:54:38;4.18;;;1.40;;
21769;SDS011;11046;49.558;8.674;2022-08-01T09:57:40;1.52;;;1.20;;
21769;SDS011;11046;49.558;8.674;2022-08-01T10:00:58;2.67;;;1.42;;
21769;SDS011;11046;49.558;8.674;2022-08-01T10:04:22;2.45;;;1.10;;
21769;SDS011;11046;49.558;8.674;2022-08-01T10:07:24;4.35;;;1.08;;
21769;SDS011;11046;49.558;8.674;2022-08-01T10:10:25;1.25;;;1.15;;
21769;SDS011;11046;49.558;8.674;2022-08-01T10:13:27;1.45;;;1.00;;
21769;SDS011;11046;49.558;8.674;2022-08-01T10:16:28;1.98;;;1.35;;
21769;SDS011;11046;49.558;8.674;2022-08-01T10:19:29;5.93;;;1.40;;
21769;SDS011;11046;49.558;8.674;2022-08-01T10:22:30;2.90;;;1.10;;
21769;SDS011;11046;49.558;8.674;2022-08-01T10:25:35;1.65;;;1.10;;
21769;SDS011;11046;49.558;8.674;2022-08-01T10:28:37;1.60;;;1.20;;
21769;SDS011;11046;49.558;8.674;2022-08-01T10:31:41;2.92;;;1.20;;
21769;SDS011;11046;49.558;8.674;2022-08-01T10:34:49;4.03;;;1.33;;
21769;SDS011;11046;49.558;8.674;2022-08-01T10:38:06;1.73;;;1.20;;
21769;SDS011;11046;49.558;8.674;2022-08-01T10:41:07;3.35;;;1.00;;
21769;SDS011;11046;49.558;8.674;2022-08-01T10:44:09;1.23;;;1.10;;
21769;SDS011;11046;49.558;8.674;2022-08-01T10:47:13;2.38;;;1.10;;
21769;SDS011;11046;49.558;8.674;2022-08-01T10:50:32;1.50;;;1.10;;
21769;SDS011;11046;49.558;8.674;2022-08-01T10:53:37;1.88;;;1.13;;
21769;SDS011;11046;49.558;8.674;2022-08-01T10:56:47;1.80;;;1.02;;
21769;SDS011;11046;49.558;8.674;2022-08-01T10:59:50;1.20;;;1.10;;
21769;SDS011;11046;49.558;8.674;2022-08-01T11:02:59;1.17;;;1.05;;
21769;SDS011;11046;49.558;8.674;2022-08-01T11:06:03;4.72;;;1.33;;
21769;SDS011;11046;49.558;8.674;2022-08-01T11:09:27;2.28;;;1.10;;
21769;SDS011;11046;49.558;8.674;2022-08-01T11:12:39;2.67;;;1.00;;
21769;SDS011;11046;49.558;8.674;2022-08-01T11:15:41;2.97;;;1.20;;
21769;SDS011;11046;49.558;8.674;2022-08-01T11:18:49;1.95;;;1.23;;
21769;SDS011;11046;49.558;8.674;2022-08-01T11:24:59;4.35;;;1.02;;
21769;SDS011;11046;49.558;8.674;2022-08-01T11:34:16;1.05;;;0.90;;
21769;SDS011;11046;49.558;8.674;2022-08-01T11:37:23;1.65;;;0.90;;
21769;SDS011;11046;49.558;8.674;2022-08-01T11:40:26;1.65;;;1.00;;
21769;SDS011;11046;49.558;8.674;2022-08-01T11:43:28;1.23;;;1.13;;
21769;SDS011;11046;49.558;8.674;2022-08-01T11:46:45;1.20;;;1.10;;
21769;SDS011;11046;49.558;8.674;2022-08-01T11:49:49;1.08;;;0.90;;
21769;SDS011;11046;49.558;8.674;2022-08-01T11:52:59;2.17;;;1.20;;
21769;SDS011;11046;49.558;8.674;2022-08-01T11:56:04;2.72;;;0.88;;
21769;SDS011;11046;49.558;8.674;2022-08-01T11:59:05;1.90;;;1.10;;
21769;SDS011;11046;49.558;8.674;2022-08-01T12:02:22;1.38;;;1.00;;
21769;SDS011;11046;49.558;8.674;2022-08-01T12:05:29;3.70;;;1.10;;
21769;SDS011;11046;49.558;8.674;2022-08-01T12:08:32;2.75;;;0.95;;
21769;SDS011;11046;49.558;8.674;2022-08-01T12:11:34;3.20;;;0.98;;
21769;SDS011;11046;49.558;8.674;2022-08-01T12:14:35;0.95;;;0.90;;
21769;SDS011;11046;49.558;8.674;2022-08-01T12:20:38;2.17;;;1.00;;
21769;SDS011;11046;49.558;8.674;2022-08-01T12:23:40;2.20;;;1.20;;
21769;SDS011;11046;49.558;8.674;2022-08-01T12:26:41;1.10;;;1.00;;
21769;SDS011;11046;49.558;8.674;2022-08-01T12:29:42;1.60;;;1.10;;
21769;SDS011;11046;49.558;8.674;2022-08-01T12:32:47;1.02;;;1.00;;
21769;SDS011;11046;49.558;8.674;2022-08-01T12:35:48;1.77;;;0.88;;
21769;SDS011;11046;49.558;8.674;2022-08-01T12:38:52;3.38;;;1.20;;
21769;SDS011;11046;49.558;8.674;2022-08-01T12:41:53;1.30;;;0.90;;
21769;SDS011;11046;49.558;8.674;2022-08-01T12:44:54;1.27;;;1.17;;
21769;SDS011;11046;49.558;8.674;2022-08-01T12:47:55;1.70;;;1.05;;
21769;SDS011;11046;49.558;8.674;2022-08-01T12:50:59;4.45;;;1.13;;
21769;SDS011;11046;49.558;8.674;2022-08-01T12:54:02;2.83;;;1.40;;
21769;SDS011;11046;49.558;8.674;2022-08-01T12:57:04;1.52;;;1.00;;
21769;SDS011;11046;49.558;8.674;2022-08-01T13:00:06;2.65;;;1.30;;
21769;SDS011;11046;49.558;8.674;2022-08-01T13:03:14;1.20;;;1.10;;
21769;SDS011;11046;49.558;8.674;2022-08-01T13:06:16;1.70;;;1.17;;
21769;SDS011;11046;49.558;8.674;2022-08-01T13:09:17;5.18;;;1.42;;
21769;SDS011;11046;49.558;8.674;2022-08-01T13:12:17;2.90;;;1.45;;
21769;SDS011;11046;49.558;8.674;2022-08-01T13:15:22;3.20;;;1.40;;
21769;SDS011;11046;49.558;8.674;2022-08-01T13:18:32;1.55;;;1.20;;
21769;SDS011;11046;49.558;8.674;2022-08-01T13:21:34;1.40;;;1.30;;
21769;SDS011;11046;49.558;8.674;2022-08-01T13:24:35;4.43;;;1.30;;
21769;SDS011;11046;49.558;8.674;2022-08-01T13:27:36;4.82;;;1.63;;
21769;SDS011;11046;49.558;8.674;2022-08-01T13:30:37;1.17;;;1.08;;
21769;SDS011;11046;49.558;8.674;2022-08-01T13:33:44;3.50;;;1.58;;
21769;SDS011;11046;49.558;8.674;2022-08-01T13:36:50;4.10;;;1.38;;
21769;SDS011;11046;49.558;8.674;2022-08-01T13:39:56;4.35;;;1.27;;
21769;SDS011;11046;49.558;8.674;2022-08-01T13:42:57;3.40;;;1.25;;
21769;SDS011;11046;49.558;8.674;2022-08-01T13:45:59;5.55;;;1.40;;
21769;SDS011;11046;49.558;8.674;2022-08-01T13:49:04;3.30;;;1.30;;
21769;SDS011;11046;49.558;8.674;2022-08-01T13:52:05;3.05;;;1.10;;
21769;SDS011;11046;49.558;8.674;2022-08-01T13:55:06;1.55;;;1.17;;
21769;SDS011;11046;49.558;8.674;2022-08-01T13:58:07;2.42;;;1.30;;
21769;SDS011;11046;49.558;8.674;2022-08-01T14:01:07;1.58;;;0.95;;
21769;SDS011;11046;49.558;8.674;2022-08-01T14:04:09;1.38;;;1.00;;
21769;SDS011;11046;49.558;8.674;2022-08-01T14:07:10;1.27;;;1.00;;
21769;SDS011;11046;49.558;8.674;2022-08-01T14:10:11;4.40;;;1.20;;
21769;SDS011;11046;49.558;8.674;2022-08-01T14:13:12;2.42;;;1.40;;
21769;SDS011;11046;49.558;8.674;2022-08-01T14:16:12;1.30;;;1.13;;
21769;SDS011;11046;49.558;8.674;2022-08-01T14:19:13;3.13;;;1.13;;
21769;SDS011;11046;49.558;8.674;2022-08-01T14:22:16;1.45;;;1.05;;
21769;SDS011;11046;49.558;8.674;2022-08-01T14:25:17;5.88;;;1.50;;
21769;SDS011;11046;49.558;8.674;2022-08-01T14:28:18;1.25;;;1.00;;
21769;SDS011;11046;49.558;8.674;2022-08-01T14:31:19;4.28;;;1.48;;
21769;SDS011;11046;49.558;8.674;2022-08-01T14:34:20;2.60;;;1.13;;
21769;SDS011;11046;49.558;8.674;2022-08-01T14:37:21;2.95;;;1.20;;
21769;SDS011;11046;49.558;8.674;2022-08-01T14:40:22;6.50;;;1.25;;
21769;SDS011;11046;49.558;8.674;2022-08-01T14:43:23;3.20;;;1.30;;
21769;SDS011;11046;49.558;8.674;2022-08-01T14:46:23;1.98;;;1.13;;
21769;SDS011;11046;49.558;8.674;2022-08-01T14:49:24;1.42;;;0.98;;
21769;SDS011;11046;49.558;8.674;2022-08-01T14:52:25;1.45;;;1.08;;
21769;SDS011;11046;49.558;8.674;2022-08-01T14:55:26;2.08;;;1.17;;
21769;SDS011;11046;49.558;8.674;2022-08-01T14:58:27;1.38;;;1.05;;
21769;SDS011;11046;49.558;8.674;2022-08-01T15:01:27;1.95;;;1.30;;
21769;SDS011;11046;49.558;8.674;2022-08-01T15:04:28;1.63;;;0.90;;
21769;SDS011;11046;49.558;8.674;2022-08-01T15:07:30;3.58;;;0.88;;
21769;SDS011;11046;49.558;8.674;2022-08-01T15:10:31;2.05;;;1.10;;
21769;SDS011;11046;49.558;8.674;2022-08-01T15:13:32;2.17;;;1.00;;
21769;SDS011;11046;49.558;8.674;2022-08-01T15:16:32;1.92;;;0.90;;
21769;SDS011;11046;49.558;8.674;2022-08-01T15:19:33;2.58;;;0.80;;
21769;SDS011;11046;49.558;8.674;2022-08-01T15:22:38;1.20;;;1.10;;
21769;SDS011;11046;49.558;8.674;2022-08-01T15:25:43;1.15;;;1.05;;
21769;SDS011;11046;49.558;8.674;2022-08-01T15:28:44;1.30;;;1.00;;
21769;SDS011;11046;49.558;8.674;2022-08-01T15:31:45;4.45;;;1.10;;
21769;SDS011;11046;49.558;8.674;2022-08-01T15:34:45;0.80;;;0.80;;
21769;SDS011;11046;49.558;8.674;2022-08-01T15:37:46;1.15;;;1.00;;
21769;SDS011;11046;49.558;8.674;2022-08-01T15:40:47;1.70;;;1.00;;
21769;SDS011;11046;49.558;8.674;2022-08-01T15:43:48;2.30;;;1.00;;
21769;SDS011;11046;49.558;8.674;2022-08-01T15:46:48;1.58;;;1.20;;
21769;SDS011;11046;49.558;8.674;2022-08-01T15:49:49;5.25;;;1.10;;
21769;SDS011;11046;49.558;8.674;2022-08-01T15:52:50;4.38;;;1.10;;
21769;SDS011;11046;49.558;8.674;2022-08-01T15:55:51;1.60;;;0.98;;
21769;SDS011;11046;49.558;8.674;2022-08-01T15:58:51;3.22;;;1.15;;
21769;SDS011;11046;49.558;8.674;2022-08-01T16:01:52;1.60;;;1.08;;
21769;SDS011;11046;49.558;8.674;2022-08-01T16:04:53;3.70;;;1.15;;
21769;SDS011;11046;49.558;8.674;2022-08-01T16:07:53;5.13;;;1.00;;
21769;SDS011;11046;49.558;8.674;2022-08-01T16:10:54;5.88;;;1.15;;
21769;SDS011;11046;49.558;8.674;2022-08-01T16:13:55;2.25;;;0.98;;
21769;SDS011;11046;49.558;8.674;2022-08-01T16:16:55;1.85;;;1.00;;
21769;SDS011;11046;49.558;8.674;2022-08-01T16:19:56;2.35;;;1.00;;
21769;SDS011;11046;49.558;8.674;2022-08-01T16:22:57;1.17;;;1.08;;
21769;SDS011;11046;49.558;8.674;2022-08-01T16:25:57;3.38;;;1.10;;
21769;SDS011;11046;49.558;8.674;2022-08-01T16:28:58;3.97;;;1.20;;
21769;SDS011;11046;49.558;8.674;2022-08-01T16:31:59;2.05;;;1.05;;
21769;SDS011;11046;49.558;8.674;2022-08-01T16:35:01;1.40;;;1.00;;
21769;SDS011;11046;49.558;8.674;2022-08-01T16:38:02;1.88;;;1.08;;
21769;SDS011;11046;49.558;8.674;2022-08-01T16:41:04;1.45;;;0.90;;
21769;SDS011;11046;49.558;8.674;2022-08-01T16:44:05;2.33;;;1.10;;
21769;SDS011;11046;49.558;8.674;2022-08-01T16:47:06;1.10;;;1.00;;
21769;SDS011;11046;49.558;8.674;2022-08-01T16:50:06;1.20;;;1.10;;
21769;SDS011;11046;49.558;8.674;2022-08-01T16:53:10;2.75;;;1.00;;
21769;SDS011;11046;49.558;8.674;2022-08-01T16:56:10;3.55;;;1.10;;
21769;SDS011;11046;49.558;8.674;2022-08-01T16:59:12;1.15;;;1.05;;
21769;SDS011;11046;49.558;8.674;2022-08-01T17:02:12;5.57;;;1.30;;
21769;SDS011;11046;49.558;8.674;2022-08-01T17:05:13;3.50;;;0.90;;
21769;SDS011;11046;49.558;8.674;2022-08-01T17:08:14;2.70;;;1.02;;
21769;SDS011;11046;49.558;8.674;2022-08-01T17:11:15;2.45;;;1.00;;
21769;SDS011;11046;49.558;8.674;2022-08-01T17:14:16;3.35;;;1.15;;
21769;SDS011;11046;49.558;8.674;2022-08-01T17:17:17;4.85;;;1.08;;
21769;SDS011;11046;49.558;8.674;2022-08-01T17:20:17;3.15;;;1.20;;
21769;SDS011;11046;49.558;8.674;2022-08-01T17:23:18;4.43;;;1.10;;
21769;SDS011;11046;49.558;8.674;2022-08-01T17:26:19;6.10;;;1.27;;
21769;SDS011;11046;49.558;8.674;2022-08-01T17:29:19;4.22;;;1.10;;
21769;SDS011;11046;49.558;8.674;2022-08-01T17:32:20;2.03;;;1.20;;
21769;SDS011;11046;49.558;8.674;2022-08-01T17:35:21;3.92;;;1.17;;
21769;SDS011;11046;49.558;8.674;2022-08-01T17:38:21;3.22;;;1.20;;
21769;SDS011;11046;49.558;8.674;2022-08-01T17:41:22;2.60;;;1.20;;
21769;SDS011;11046;49.558;8.674;2022-08-01T17:44:23;1.70;;;1.40;;
21769;SDS011;11046;49.558;8.674;2022-08-01T17:47:25;1.23;;;1.13;;
21769;SDS011;11046;49.558;8.674;2022-08-01T17:50:26;1.83;;;1.27;;
21769;SDS011;11046;49.558;8.674;2022-08-01T17:53:27;3.20;;;1.15;;
21769;SDS011;11046;49.558;8.674;2022-08-01T17:56:28;5.22;;;1.20;;
21769;SDS011;11046;49.558;8.674;2022-08-01T17:59:28;1.38;;;1.27;;
21769;SDS011;11046;49.558;8.674;2022-08-01T18:02:29;2.55;;;1.20;;
21769;SDS011;11046;49.558;8.674;2022-08-01T18:05:30;3.15;;;1.20;;
21769;SDS011;11046;49.558;8.674;2022-08-01T18:08:32;1.83;;;1.20;;
21769;SDS011;11046;49.558;8.674;2022-08-01T18:11:32;3.50;;;1.40;;
21769;SDS011;11046;49.558;8.674;2022-08-01T18:14:33;2.13;;;1.30;;
21769;SDS011;11046;49.558;8.674;2022-08-01T18:17:34;5.22;;;1.50;;
21769;SDS011;11046;49.558;8.674;2022-08-01T18:20:35;3.70;;;1.23;;
21769;SDS011;11046;49.558;8.674;2022-08-01T18:23:35;1.70;;;1.30;;
21769;SDS011;11046;49.558;8.674;2022-08-01T18:26:36;5.03;;;1.40;;
21769;SDS011;11046;49.558;8.674;2022-08-01T18:29:37;1.88;;;1.30;;
21769;SDS011;11046;49.558;8.674;2022-08-01T18:32:37;1.40;;;1.30;;
21769;SDS011;11046;49.558;8.674;2022-08-01T18:35:38;2.45;;;1.25;;
21769;SDS011;11046;49.558;8.674;2022-08-01T18:38:39;4.20;;;1.35;;
21769;SDS011;11046;49.558;8.674;2022-08-01T18:41:39;1.58;;;1.40;;
21769;SDS011;11046;49.558;8.674;2022-08-01T18:44:40;3.90;;;1.70;;
21769;SDS011;11046;49.558;8.674;2022-08-01T18:47:41;2.00;;;1.30;;
21769;SDS011;11046;49.558;8.674;2022-08-01T18:50:41;8.32;;;1.50;;